sensor_id;sensor_type;location;lat;lon;timestamp;P1;durP1;ratioP1;P2;durP2;ratioP2
29030;SDS011;16122;50.236;11.734;2023-07-09T00:01:07;7.87;;;6.50;;
29030;SDS011;16122;50.236;11.734;2023-07-09T00:03:42;7.53;;;6.80;;
29030;SDS011;16122;50.236;11.734;2023-07-09T00:06:09;9.60;;;7.90;;
29030;SDS011;16122;50.236;11.734;2023-07-09T00:08:35;6.67;;;6.03;;
29030;SDS011;16122;50.236;11.734;2023-07-09T00:11:05;7.27;;;6.60;;
29030;SDS011;16122;50.236;11.734;2023-07-09T00:13:31;7.37;;;6.47;;
29030;SDS011;16122;50.236;11.734;2023-07-09T00:15:58;7.17;;;6.47;;
29030;SDS011;16122;50.236;11.734;2023-07-09T00:18:26;8.60;;;7.13;;
29030;SDS011;16122;50.236;11.734;2023-07-09T00:20:51;8.50;;;7.57;;
29030;SDS011;16122;50.236;11.734;2023-07-09T00:23:17;7.90;;;7.20;;
29030;SDS011;16122;50.236;11.734;2023-07-09T00:25:44;7.23;;;6.60;;
29030;SDS011;16122;50.236;11.734;2023-07-09T00:28:15;8.50;;;6.70;;
29030;SDS011;16122;50.236;11.734;2023-07-09T00:30:43;7.60;;;6.90;;
29030;SDS011;16122;50.236;11.734;2023-07-09T00:33:16;9.50;;;7.40;;
29030;SDS011;16122;50.236;11.734;2023-07-09T00:35:45;7.33;;;6.60;;
29030;SDS011;16122;50.236;11.734;2023-07-09T00:38:20;7.30;;;6.63;;
29030;SDS011;16122;50.236;11.734;2023-07-09T00:40:47;7.53;;;6.57;;
29030;SDS011;16122;50.236;11.734;2023-07-09T00:43:24;7.77;;;6.97;;
29030;SDS011;16122;50.236;11.734;2023-07-09T00:48:45;8.30;;;7.00;;
29030;SDS011;16122;50.236;11.734;2023-07-09T00:51:19;10.60;;;7.27;;
29030;SDS011;16122;50.236;11.734;2023-07-09T00:53:48;6.60;;;6.00;;
29030;SDS011;16122;50.236;11.734;2023-07-09T00:56:18;7.03;;;6.33;;
29030;SDS011;16122;50.236;11.734;2023-07-09T00:58:53;8.07;;;6.70;;
29030;SDS011;16122;50.236;11.734;2023-07-09T01:01:20;7.80;;;7.10;;
29030;SDS011;16122;50.236;11.734;2023-07-09T01:03:48;8.63;;;6.37;;
29030;SDS011;16122;50.236;11.734;2023-07-09T01:06:19;7.97;;;7.17;;
29030;SDS011;16122;50.236;11.734;2023-07-09T01:08:55;7.90;;;6.77;;
29030;SDS011;16122;50.236;11.734;2023-07-09T01:11:21;7.47;;;6.70;;
29030;SDS011;16122;50.236;11.734;2023-07-09T01:13:48;6.77;;;6.17;;
29030;SDS011;16122;50.236;11.734;2023-07-09T01:16:19;8.83;;;7.13;;
29030;SDS011;16122;50.236;11.734;2023-07-09T01:18:49;7.43;;;6.73;;
29030;SDS011;16122;50.236;11.734;2023-07-09T01:21:15;7.10;;;6.40;;
29030;SDS011;16122;50.236;11.734;2023-07-09T01:23:45;7.60;;;6.90;;
29030;SDS011;16122;50.236;11.734;2023-07-09T01:26:14;8.17;;;7.37;;
29030;SDS011;16122;50.236;11.734;2023-07-09T01:28:46;8.50;;;7.60;;
29030;SDS011;16122;50.236;11.734;2023-07-09T01:31:14;6.70;;;6.00;;
29030;SDS011;16122;50.236;11.734;2023-07-09T01:33:40;7.60;;;6.80;;
29030;SDS011;16122;50.236;11.734;2023-07-09T01:36:10;6.70;;;6.10;;
29030;SDS011;16122;50.236;11.734;2023-07-09T01:38:39;7.80;;;7.00;;
29030;SDS011;16122;50.236;11.734;2023-07-09T01:41:05;7.00;;;6.30;;
29030;SDS011;16122;50.236;11.734;2023-07-09T01:43:32;6.63;;;5.93;;
29030;SDS011;16122;50.236;11.734;2023-07-09T01:45:58;7.83;;;6.97;;
29030;SDS011;16122;50.236;11.734;2023-07-09T01:48:27;7.27;;;6.57;;
29030;SDS011;16122;50.236;11.734;2023-07-09T01:50:53;7.37;;;6.67;;
29030;SDS011;16122;50.236;11.734;2023-07-09T01:53:24;6.63;;;6.03;;
29030;SDS011;16122;50.236;11.734;2023-07-09T01:55:51;8.17;;;7.37;;
29030;SDS011;16122;50.236;11.734;2023-07-09T01:58:19;7.03;;;6.23;;
29030;SDS011;16122;50.236;11.734;2023-07-09T02:00:50;7.03;;;6.43;;
29030;SDS011;16122;50.236;11.734;2023-07-09T02:03:16;7.27;;;6.27;;
29030;SDS011;16122;50.236;11.734;2023-07-09T02:05:43;7.23;;;6.47;;
29030;SDS011;16122;50.236;11.734;2023-07-09T02:08:09;6.77;;;6.17;;
29030;SDS011;16122;50.236;11.734;2023-07-09T02:10:34;6.57;;;5.97;;
29030;SDS011;16122;50.236;11.734;2023-07-09T02:13:00;7.20;;;6.60;;
29030;SDS011;16122;50.236;11.734;2023-07-09T02:15:26;6.47;;;5.80;;
29030;SDS011;16122;50.236;11.734;2023-07-09T02:17:52;7.00;;;6.30;;
29030;SDS011;16122;50.236;11.734;2023-07-09T02:20:18;7.53;;;6.83;;
29030;SDS011;16122;50.236;11.734;2023-07-09T02:22:44;7.03;;;6.33;;
29030;SDS011;16122;50.236;11.734;2023-07-09T02:25:10;6.70;;;6.10;;
29030;SDS011;16122;50.236;11.734;2023-07-09T02:27:38;7.77;;;6.97;;
29030;SDS011;16122;50.236;11.734;2023-07-09T02:30:05;7.20;;;6.33;;
29030;SDS011;16122;50.236;11.734;2023-07-09T02:32:32;7.17;;;6.50;;
29030;SDS011;16122;50.236;11.734;2023-07-09T02:34:58;7.00;;;6.30;;
29030;SDS011;16122;50.236;11.734;2023-07-09T02:37:24;7.87;;;7.10;;
29030;SDS011;16122;50.236;11.734;2023-07-09T02:39:52;6.83;;;6.23;;
29030;SDS011;16122;50.236;11.734;2023-07-09T02:42:19;7.27;;;6.57;;
29030;SDS011;16122;50.236;11.734;2023-07-09T02:44:47;7.77;;;5.93;;
29030;SDS011;16122;50.236;11.734;2023-07-09T02:47:13;7.20;;;6.50;;
29030;SDS011;16122;50.236;11.734;2023-07-09T02:49:40;7.53;;;6.80;;
29030;SDS011;16122;50.236;11.734;2023-07-09T02:52:06;6.70;;;5.93;;
29030;SDS011;16122;50.236;11.734;2023-07-09T02:54:33;6.70;;;6.10;;
29030;SDS011;16122;50.236;11.734;2023-07-09T02:56:59;7.37;;;6.67;;
29030;SDS011;16122;50.236;11.734;2023-07-09T02:59:25;6.27;;;5.73;;
29030;SDS011;16122;50.236;11.734;2023-07-09T03:01:54;7.93;;;6.80;;
29030;SDS011;16122;50.236;11.734;2023-07-09T03:04:20;6.40;;;5.80;;
29030;SDS011;16122;50.236;11.734;2023-07-09T03:06:46;6.87;;;6.17;;
29030;SDS011;16122;50.236;11.734;2023-07-09T03:09:12;7.13;;;6.50;;
29030;SDS011;16122;50.236;11.734;2023-07-09T03:11:38;7.03;;;6.43;;
29030;SDS011;16122;50.236;11.734;2023-07-09T03:14:04;7.30;;;6.60;;
29030;SDS011;16122;50.236;11.734;2023-07-09T03:16:31;8.23;;;7.43;;
29030;SDS011;16122;50.236;11.734;2023-07-09T03:18:59;7.10;;;6.00;;
29030;SDS011;16122;50.236;11.734;2023-07-09T03:21:26;7.03;;;6.20;;
29030;SDS011;16122;50.236;11.734;2023-07-09T03:23:53;6.97;;;6.27;;
29030;SDS011;16122;50.236;11.734;2023-07-09T03:26:19;6.30;;;5.80;;
29030;SDS011;16122;50.236;11.734;2023-07-09T03:28:45;6.27;;;5.70;;
29030;SDS011;16122;50.236;11.734;2023-07-09T03:31:11;6.70;;;6.10;;
29030;SDS011;16122;50.236;11.734;2023-07-09T03:33:37;7.13;;;6.43;;
29030;SDS011;16122;50.236;11.734;2023-07-09T03:36:03;7.17;;;6.57;;
29030;SDS011;16122;50.236;11.734;2023-07-09T03:38:30;6.90;;;6.20;;
29030;SDS011;16122;50.236;11.734;2023-07-09T03:40:56;6.80;;;6.20;;
29030;SDS011;16122;50.236;11.734;2023-07-09T03:43:22;7.33;;;6.63;;
29030;SDS011;16122;50.236;11.734;2023-07-09T03:45:49;6.80;;;6.20;;
29030;SDS011;16122;50.236;11.734;2023-07-09T03:48:16;7.10;;;6.37;;
29030;SDS011;16122;50.236;11.734;2023-07-09T03:50:43;6.83;;;6.20;;
29030;SDS011;16122;50.236;11.734;2023-07-09T03:53:10;6.17;;;5.60;;
29030;SDS011;16122;50.236;11.734;2023-07-09T03:55:36;7.10;;;6.13;;
29030;SDS011;16122;50.236;11.734;2023-07-09T03:58:02;7.07;;;6.37;;
29030;SDS011;16122;50.236;11.734;2023-07-09T04:00:29;8.00;;;5.83;;
29030;SDS011;16122;50.236;11.734;2023-07-09T04:02:56;9.23;;;6.23;;
29030;SDS011;16122;50.236;11.734;2023-07-09T04:05:22;10.13;;;7.00;;
29030;SDS011;16122;50.236;11.734;2023-07-09T04:07:49;7.47;;;6.77;;
29030;SDS011;16122;50.236;11.734;2023-07-09T04:10:15;8.07;;;6.10;;
29030;SDS011;16122;50.236;11.734;2023-07-09T04:12:41;7.10;;;6.40;;
29030;SDS011;16122;50.236;11.734;2023-07-09T04:15:07;7.00;;;6.40;;
29030;SDS011;16122;50.236;11.734;2023-07-09T04:17:34;6.57;;;5.97;;
29030;SDS011;16122;50.236;11.734;2023-07-09T04:20:00;7.23;;;6.53;;
29030;SDS011;16122;50.236;11.734;2023-07-09T04:22:26;6.47;;;5.80;;
29030;SDS011;16122;50.236;11.734;2023-07-09T04:24:52;7.10;;;6.33;;
29030;SDS011;16122;50.236;11.734;2023-07-09T04:27:18;7.43;;;6.57;;
29030;SDS011;16122;50.236;11.734;2023-07-09T04:29:44;6.60;;;6.00;;
29030;SDS011;16122;50.236;11.734;2023-07-09T04:32:13;7.20;;;6.50;;
29030;SDS011;16122;50.236;11.734;2023-07-09T04:34:40;7.10;;;6.30;;
29030;SDS011;16122;50.236;11.734;2023-07-09T04:37:07;6.57;;;5.87;;
29030;SDS011;16122;50.236;11.734;2023-07-09T04:39:35;6.33;;;5.73;;
29030;SDS011;16122;50.236;11.734;2023-07-09T04:42:01;6.67;;;5.97;;
29030;SDS011;16122;50.236;11.734;2023-07-09T04:44:27;6.90;;;6.20;;
29030;SDS011;16122;50.236;11.734;2023-07-09T04:46:53;7.10;;;6.40;;
29030;SDS011;16122;50.236;11.734;2023-07-09T04:49:19;6.97;;;6.27;;
29030;SDS011;16122;50.236;11.734;2023-07-09T04:51:45;7.70;;;6.67;;
29030;SDS011;16122;50.236;11.734;2023-07-09T04:54:11;7.00;;;6.30;;
29030;SDS011;16122;50.236;11.734;2023-07-09T04:56:40;7.70;;;6.30;;
29030;SDS011;16122;50.236;11.734;2023-07-09T04:59:10;6.80;;;6.17;;
29030;SDS011;16122;50.236;11.734;2023-07-09T05:01:36;9.87;;;6.77;;
29030;SDS011;16122;50.236;11.734;2023-07-09T05:04:03;10.23;;;6.63;;
29030;SDS011;16122;50.236;11.734;2023-07-09T05:06:29;6.83;;;6.00;;
29030;SDS011;16122;50.236;11.734;2023-07-09T05:08:55;9.43;;;6.77;;
29030;SDS011;16122;50.236;11.734;2023-07-09T05:11:21;9.30;;;6.83;;
29030;SDS011;16122;50.236;11.734;2023-07-09T05:13:46;7.93;;;6.80;;
29030;SDS011;16122;50.236;11.734;2023-07-09T05:16:12;8.33;;;7.37;;
29030;SDS011;16122;50.236;11.734;2023-07-09T05:18:38;9.30;;;6.80;;
29030;SDS011;16122;50.236;11.734;2023-07-09T05:21:04;10.13;;;6.80;;
29030;SDS011;16122;50.236;11.734;2023-07-09T05:23:30;7.73;;;6.73;;
29030;SDS011;16122;50.236;11.734;2023-07-09T05:25:56;7.07;;;6.37;;
29030;SDS011;16122;50.236;11.734;2023-07-09T05:28:23;6.93;;;6.23;;
29030;SDS011;16122;50.236;11.734;2023-07-09T05:30:49;8.80;;;7.43;;
29030;SDS011;16122;50.236;11.734;2023-07-09T05:33:15;10.57;;;7.33;;
29030;SDS011;16122;50.236;11.734;2023-07-09T05:35:42;9.67;;;7.97;;
29030;SDS011;16122;50.236;11.734;2023-07-09T05:38:08;9.03;;;6.50;;
29030;SDS011;16122;50.236;11.734;2023-07-09T05:40:34;7.50;;;6.60;;
29030;SDS011;16122;50.236;11.734;2023-07-09T05:42:59;9.13;;;6.63;;
29030;SDS011;16122;50.236;11.734;2023-07-09T05:45:25;9.53;;;7.30;;
29030;SDS011;16122;50.236;11.734;2023-07-09T05:47:51;10.70;;;7.40;;
29030;SDS011;16122;50.236;11.734;2023-07-09T05:50:17;12.50;;;7.60;;
29030;SDS011;16122;50.236;11.734;2023-07-09T05:52:43;7.30;;;6.60;;
29030;SDS011;16122;50.236;11.734;2023-07-09T05:55:08;9.37;;;7.73;;
29030;SDS011;16122;50.236;11.734;2023-07-09T05:57:34;7.57;;;6.77;;
29030;SDS011;16122;50.236;11.734;2023-07-09T06:00:00;8.63;;;7.30;;
29030;SDS011;16122;50.236;11.734;2023-07-09T06:02:26;10.10;;;6.70;;
29030;SDS011;16122;50.236;11.734;2023-07-09T06:04:52;8.93;;;6.87;;
29030;SDS011;16122;50.236;11.734;2023-07-09T06:07:17;7.73;;;6.80;;
29030;SDS011;16122;50.236;11.734;2023-07-09T06:09:44;9.47;;;7.10;;
29030;SDS011;16122;50.236;11.734;2023-07-09T06:12:11;9.00;;;7.33;;
29030;SDS011;16122;50.236;11.734;2023-07-09T06:14:38;13.03;;;7.67;;
29030;SDS011;16122;50.236;11.734;2023-07-09T06:17:04;8.77;;;7.47;;
29030;SDS011;16122;50.236;11.734;2023-07-09T06:19:30;8.23;;;7.27;;
29030;SDS011;16122;50.236;11.734;2023-07-09T06:21:56;10.87;;;6.60;;
29030;SDS011;16122;50.236;11.734;2023-07-09T06:24:22;8.50;;;7.30;;
29030;SDS011;16122;50.236;11.734;2023-07-09T06:26:48;10.67;;;8.83;;
29030;SDS011;16122;50.236;11.734;2023-07-09T06:29:14;9.07;;;7.10;;
29030;SDS011;16122;50.236;11.734;2023-07-09T06:31:40;7.63;;;6.73;;
29030;SDS011;16122;50.236;11.734;2023-07-09T06:34:07;9.40;;;7.23;;
29030;SDS011;16122;50.236;11.734;2023-07-09T06:36:34;8.10;;;7.30;;
29030;SDS011;16122;50.236;11.734;2023-07-09T06:39:00;9.40;;;7.77;;
29030;SDS011;16122;50.236;11.734;2023-07-09T06:41:28;8.07;;;6.80;;
29030;SDS011;16122;50.236;11.734;2023-07-09T06:43:54;7.83;;;6.87;;
29030;SDS011;16122;50.236;11.734;2023-07-09T06:46:20;9.50;;;6.87;;
29030;SDS011;16122;50.236;11.734;2023-07-09T06:48:46;9.93;;;7.00;;
29030;SDS011;16122;50.236;11.734;2023-07-09T06:51:12;9.20;;;7.43;;
29030;SDS011;16122;50.236;11.734;2023-07-09T06:53:38;9.03;;;6.80;;
29030;SDS011;16122;50.236;11.734;2023-07-09T06:56:04;7.90;;;6.47;;
29030;SDS011;16122;50.236;11.734;2023-07-09T06:58:31;8.70;;;6.90;;
29030;SDS011;16122;50.236;11.734;2023-07-09T07:01:00;8.13;;;6.57;;
29030;SDS011;16122;50.236;11.734;2023-07-09T07:03:31;12.10;;;7.00;;
29030;SDS011;16122;50.236;11.734;2023-07-09T07:05:57;9.50;;;6.67;;
29030;SDS011;16122;50.236;11.734;2023-07-09T07:08:24;8.33;;;6.27;;
29030;SDS011;16122;50.236;11.734;2023-07-09T07:10:54;9.53;;;6.40;;
29030;SDS011;16122;50.236;11.734;2023-07-09T07:13:34;8.37;;;6.60;;
29030;SDS011;16122;50.236;11.734;2023-07-09T07:16:02;7.80;;;6.23;;
29030;SDS011;16122;50.236;11.734;2023-07-09T07:18:33;8.50;;;6.60;;
29030;SDS011;16122;50.236;11.734;2023-07-09T07:20:59;8.83;;;6.50;;
29030;SDS011;16122;50.236;11.734;2023-07-09T07:23:25;7.50;;;6.40;;
29030;SDS011;16122;50.236;11.734;2023-07-09T07:25:51;7.90;;;7.10;;
29030;SDS011;16122;50.236;11.734;2023-07-09T07:28:17;8.57;;;5.80;;
29030;SDS011;16122;50.236;11.734;2023-07-09T07:30:43;7.33;;;5.93;;
29030;SDS011;16122;50.236;11.734;2023-07-09T07:33:10;10.23;;;6.93;;
29030;SDS011;16122;50.236;11.734;2023-07-09T07:35:36;9.20;;;6.43;;
29030;SDS011;16122;50.236;11.734;2023-07-09T07:38:02;7.27;;;6.23;;
29030;SDS011;16122;50.236;11.734;2023-07-09T07:40:28;9.60;;;6.20;;
29030;SDS011;16122;50.236;11.734;2023-07-09T07:42:54;9.50;;;6.37;;
29030;SDS011;16122;50.236;11.734;2023-07-09T07:45:21;7.17;;;6.30;;
29030;SDS011;16122;50.236;11.734;2023-07-09T07:47:47;8.13;;;6.37;;
29030;SDS011;16122;50.236;11.734;2023-07-09T07:50:13;7.40;;;6.20;;
29030;SDS011;16122;50.236;11.734;2023-07-09T07:52:39;8.50;;;6.53;;
29030;SDS011;16122;50.236;11.734;2023-07-09T07:55:08;10.10;;;5.50;;
29030;SDS011;16122;50.236;11.734;2023-07-09T07:57:35;9.07;;;5.87;;
29030;SDS011;16122;50.236;11.734;2023-07-09T08:00:01;8.10;;;6.70;;
29030;SDS011;16122;50.236;11.734;2023-07-09T08:02:37;10.63;;;6.60;;
29030;SDS011;16122;50.236;11.734;2023-07-09T08:05:04;7.80;;;6.43;;
29030;SDS011;16122;50.236;11.734;2023-07-09T08:07:30;11.83;;;6.13;;
29030;SDS011;16122;50.236;11.734;2023-07-09T08:09:56;8.03;;;6.03;;
29030;SDS011;16122;50.236;11.734;2023-07-09T08:12:22;12.90;;;5.93;;
29030;SDS011;16122;50.236;11.734;2023-07-09T08:14:48;8.20;;;6.43;;
29030;SDS011;16122;50.236;11.734;2023-07-09T08:17:13;8.90;;;5.90;;
29030;SDS011;16122;50.236;11.734;2023-07-09T08:19:46;9.57;;;5.67;;
29030;SDS011;16122;50.236;11.734;2023-07-09T08:22:15;8.80;;;6.37;;
29030;SDS011;16122;50.236;11.734;2023-07-09T08:24:42;8.90;;;5.90;;
29030;SDS011;16122;50.236;11.734;2023-07-09T08:27:08;8.73;;;6.23;;
29030;SDS011;16122;50.236;11.734;2023-07-09T08:29:35;9.00;;;6.40;;
29030;SDS011;16122;50.236;11.734;2023-07-09T08:32:01;7.40;;;5.90;;
29030;SDS011;16122;50.236;11.734;2023-07-09T08:34:28;9.17;;;6.17;;
29030;SDS011;16122;50.236;11.734;2023-07-09T08:36:54;8.37;;;5.43;;
29030;SDS011;16122;50.236;11.734;2023-07-09T08:39:19;7.67;;;6.00;;
29030;SDS011;16122;50.236;11.734;2023-07-09T08:41:50;8.53;;;5.77;;
29030;SDS011;16122;50.236;11.734;2023-07-09T08:49:54;9.47;;;6.70;;
29030;SDS011;16122;50.236;11.734;2023-07-09T08:55:09;9.03;;;6.10;;
29030;SDS011;16122;50.236;11.734;2023-07-09T08:57:42;8.57;;;6.60;;
29030;SDS011;16122;50.236;11.734;2023-07-09T09:00:32;8.20;;;6.33;;
29030;SDS011;16122;50.236;11.734;2023-07-09T09:03:07;7.57;;;6.10;;
29030;SDS011;16122;50.236;11.734;2023-07-09T09:05:39;8.80;;;6.07;;
29030;SDS011;16122;50.236;11.734;2023-07-09T09:13:50;7.10;;;5.50;;
29030;SDS011;16122;50.236;11.734;2023-07-09T09:16:22;8.40;;;5.90;;
29030;SDS011;16122;50.236;11.734;2023-07-09T09:18:58;12.10;;;5.73;;
29030;SDS011;16122;50.236;11.734;2023-07-09T09:21:26;8.17;;;6.00;;
29030;SDS011;16122;50.236;11.734;2023-07-09T09:24:03;7.73;;;5.70;;
29030;SDS011;16122;50.236;11.734;2023-07-09T09:26:45;6.90;;;5.63;;
29030;SDS011;16122;50.236;11.734;2023-07-09T09:29:14;7.90;;;5.63;;
29030;SDS011;16122;50.236;11.734;2023-07-09T09:31:42;11.60;;;6.63;;
29030;SDS011;16122;50.236;11.734;2023-07-09T09:34:24;9.23;;;5.47;;
29030;SDS011;16122;50.236;11.734;2023-07-09T09:36:52;5.67;;;5.07;;
29030;SDS011;16122;50.236;11.734;2023-07-09T09:39:19;7.07;;;5.30;;
29030;SDS011;16122;50.236;11.734;2023-07-09T09:41:45;6.10;;;5.13;;
29030;SDS011;16122;50.236;11.734;2023-07-09T09:44:18;6.30;;;5.60;;
29030;SDS011;16122;50.236;11.734;2023-07-09T09:46:47;5.87;;;5.27;;
29030;SDS011;16122;50.236;11.734;2023-07-09T09:49:14;7.07;;;5.17;;
29030;SDS011;16122;50.236;11.734;2023-07-09T09:51:42;13.77;;;5.40;;
29030;SDS011;16122;50.236;11.734;2023-07-09T09:54:21;6.70;;;4.73;;
29030;SDS011;16122;50.236;11.734;2023-07-09T09:56:52;6.93;;;5.40;;
29030;SDS011;16122;50.236;11.734;2023-07-09T09:59:20;11.93;;;6.00;;
29030;SDS011;16122;50.236;11.734;2023-07-09T10:01:57;6.00;;;5.13;;
29030;SDS011;16122;50.236;11.734;2023-07-09T10:04:28;12.13;;;5.53;;
29030;SDS011;16122;50.236;11.734;2023-07-09T10:06:58;5.83;;;4.97;;
29030;SDS011;16122;50.236;11.734;2023-07-09T10:17:23;8.17;;;5.10;;
29030;SDS011;16122;50.236;11.734;2023-07-09T10:23:12;8.23;;;5.20;;
29030;SDS011;16122;50.236;11.734;2023-07-09T10:26:13;6.20;;;4.73;;
29030;SDS011;16122;50.236;11.734;2023-07-09T10:31:41;7.13;;;5.57;;
29030;SDS011;16122;50.236;11.734;2023-07-09T10:40:03;9.03;;;4.80;;
29030;SDS011;16122;50.236;11.734;2023-07-09T10:42:37;7.20;;;5.03;;
29030;SDS011;16122;50.236;11.734;2023-07-09T10:45:26;6.97;;;4.73;;
29030;SDS011;16122;50.236;11.734;2023-07-09T10:47:55;9.93;;;4.83;;
29030;SDS011;16122;50.236;11.734;2023-07-09T10:50:33;6.97;;;4.63;;
29030;SDS011;16122;50.236;11.734;2023-07-09T10:56:18;7.83;;;4.50;;
29030;SDS011;16122;50.236;11.734;2023-07-09T10:59:21;7.60;;;5.00;;
29030;SDS011;16122;50.236;11.734;2023-07-09T11:01:43;8.27;;;5.57;;
29030;SDS011;16122;50.236;11.734;2023-07-09T11:04:20;5.13;;;4.53;;
29030;SDS011;16122;50.236;11.734;2023-07-09T11:06:50;6.73;;;4.60;;
29030;SDS011;16122;50.236;11.734;2023-07-09T11:09:30;8.90;;;4.20;;
29030;SDS011;16122;50.236;11.734;2023-07-09T11:12:02;8.97;;;4.70;;
29030;SDS011;16122;50.236;11.734;2023-07-09T11:14:43;5.33;;;4.57;;
29030;SDS011;16122;50.236;11.734;2023-07-09T11:17:18;6.10;;;4.77;;
29030;SDS011;16122;50.236;11.734;2023-07-09T11:19:47;5.40;;;4.00;;
29030;SDS011;16122;50.236;11.734;2023-07-09T11:22:21;7.90;;;5.60;;
29030;SDS011;16122;50.236;11.734;2023-07-09T11:27:33;6.40;;;4.80;;
29030;SDS011;16122;50.236;11.734;2023-07-09T11:30:20;9.07;;;5.70;;
29030;SDS011;16122;50.236;11.734;2023-07-09T11:32:52;8.40;;;5.17;;
29030;SDS011;16122;50.236;11.734;2023-07-09T11:35:27;5.27;;;4.53;;
29030;SDS011;16122;50.236;11.734;2023-07-09T11:37:55;7.20;;;4.80;;
29030;SDS011;16122;50.236;11.734;2023-07-09T11:40:23;10.10;;;5.77;;
29030;SDS011;16122;50.236;11.734;2023-07-09T11:42:51;8.90;;;4.77;;
29030;SDS011;16122;50.236;11.734;2023-07-09T11:45:28;9.27;;;5.27;;
29030;SDS011;16122;50.236;11.734;2023-07-09T11:47:58;7.07;;;5.10;;
29030;SDS011;16122;50.236;11.734;2023-07-09T11:50:38;7.13;;;5.83;;
29030;SDS011;16122;50.236;11.734;2023-07-09T11:56:12;7.87;;;5.27;;
29030;SDS011;16122;50.236;11.734;2023-07-09T11:58:47;7.87;;;5.90;;
29030;SDS011;16122;50.236;11.734;2023-07-09T12:01:18;8.40;;;6.30;;
29030;SDS011;16122;50.236;11.734;2023-07-09T12:03:47;5.83;;;4.77;;
29030;SDS011;16122;50.236;11.734;2023-07-09T12:08:47;9.90;;;5.73;;
29030;SDS011;16122;50.236;11.734;2023-07-09T12:11:22;9.53;;;5.27;;
29030;SDS011;16122;50.236;11.734;2023-07-09T12:13:49;8.30;;;5.27;;
29030;SDS011;16122;50.236;11.734;2023-07-09T12:16:24;11.93;;;5.10;;
29030;SDS011;16122;50.236;11.734;2023-07-09T12:18:50;6.10;;;5.50;;
29030;SDS011;16122;50.236;11.734;2023-07-09T12:21:16;7.63;;;5.63;;
29030;SDS011;16122;50.236;11.734;2023-07-09T12:23:42;7.30;;;5.57;;
29030;SDS011;16122;50.236;11.734;2023-07-09T12:26:13;10.07;;;5.70;;
29030;SDS011;16122;50.236;11.734;2023-07-09T12:28:40;5.40;;;4.80;;
29030;SDS011;16122;50.236;11.734;2023-07-09T12:31:13;7.00;;;5.90;;
29030;SDS011;16122;50.236;11.734;2023-07-09T12:33:51;8.80;;;5.97;;
29030;SDS011;16122;50.236;11.734;2023-07-09T12:36:18;8.20;;;5.93;;
29030;SDS011;16122;50.236;11.734;2023-07-09T12:38:49;8.27;;;6.37;;
29030;SDS011;16122;50.236;11.734;2023-07-09T12:41:24;7.37;;;5.43;;
29030;SDS011;16122;50.236;11.734;2023-07-09T12:43:54;6.70;;;5.23;;
29030;SDS011;16122;50.236;11.734;2023-07-09T12:46:22;8.73;;;5.43;;
29030;SDS011;16122;50.236;11.734;2023-07-09T12:48:49;9.03;;;5.70;;
29030;SDS011;16122;50.236;11.734;2023-07-09T12:51:24;6.87;;;5.43;;
29030;SDS011;16122;50.236;11.734;2023-07-09T12:54:00;10.10;;;5.63;;
29030;SDS011;16122;50.236;11.734;2023-07-09T12:56:28;10.97;;;6.00;;
29030;SDS011;16122;50.236;11.734;2023-07-09T12:58:56;7.60;;;5.70;;
29030;SDS011;16122;50.236;11.734;2023-07-09T13:01:22;9.40;;;6.07;;
29030;SDS011;16122;50.236;11.734;2023-07-09T13:03:56;12.13;;;5.93;;
29030;SDS011;16122;50.236;11.734;2023-07-09T13:06:26;12.60;;;6.77;;
29030;SDS011;16122;50.236;11.734;2023-07-09T13:09:00;10.83;;;6.27;;
29030;SDS011;16122;50.236;11.734;2023-07-09T13:11:34;8.80;;;6.07;;
29030;SDS011;16122;50.236;11.734;2023-07-09T13:14:03;19.50;;;7.47;;
29030;SDS011;16122;50.236;11.734;2023-07-09T13:16:30;20.30;;;7.10;;
29030;SDS011;16122;50.236;11.734;2023-07-09T13:19:02;25.20;;;7.53;;
29030;SDS011;16122;50.236;11.734;2023-07-09T13:21:28;16.80;;;7.70;;
29030;SDS011;16122;50.236;11.734;2023-07-09T13:23:54;21.03;;;7.63;;
29030;SDS011;16122;50.236;11.734;2023-07-09T13:26:20;15.00;;;6.50;;
29030;SDS011;16122;50.236;11.734;2023-07-09T13:28:46;22.53;;;6.30;;
29030;SDS011;16122;50.236;11.734;2023-07-09T13:31:13;16.07;;;6.07;;
29030;SDS011;16122;50.236;11.734;2023-07-09T13:33:43;17.87;;;8.13;;
29030;SDS011;16122;50.236;11.734;2023-07-09T13:36:10;26.47;;;7.60;;
29030;SDS011;16122;50.236;11.734;2023-07-09T13:38:36;19.37;;;7.30;;
29030;SDS011;16122;50.236;11.734;2023-07-09T13:41:12;25.27;;;7.53;;
29030;SDS011;16122;50.236;11.734;2023-07-09T13:43:47;24.53;;;6.93;;
29030;SDS011;16122;50.236;11.734;2023-07-09T13:46:13;11.07;;;6.80;;
29030;SDS011;16122;50.236;11.734;2023-07-09T13:48:40;10.77;;;6.63;;
29030;SDS011;16122;50.236;11.734;2023-07-09T13:51:16;12.03;;;6.43;;
29030;SDS011;16122;50.236;11.734;2023-07-09T13:53:48;20.77;;;6.43;;
29030;SDS011;16122;50.236;11.734;2023-07-09T13:56:19;13.10;;;7.07;;
29030;SDS011;16122;50.236;11.734;2023-07-09T13:58:45;14.77;;;7.17;;
29030;SDS011;16122;50.236;11.734;2023-07-09T14:01:15;10.20;;;6.80;;
29030;SDS011;16122;50.236;11.734;2023-07-09T14:03:45;12.47;;;6.40;;
29030;SDS011;16122;50.236;11.734;2023-07-09T14:06:11;8.80;;;6.27;;
29030;SDS011;16122;50.236;11.734;2023-07-09T14:08:38;20.47;;;7.20;;
29030;SDS011;16122;50.236;11.734;2023-07-09T14:11:09;13.30;;;6.87;;
29030;SDS011;16122;50.236;11.734;2023-07-09T14:13:39;10.10;;;6.80;;
29030;SDS011;16122;50.236;11.734;2023-07-09T14:16:06;9.57;;;7.17;;
29030;SDS011;16122;50.236;11.734;2023-07-09T14:18:37;9.83;;;6.43;;
29030;SDS011;16122;50.236;11.734;2023-07-09T14:21:10;12.10;;;6.57;;
29030;SDS011;16122;50.236;11.734;2023-07-09T14:23:38;10.70;;;6.87;;
29030;SDS011;16122;50.236;11.734;2023-07-09T14:26:04;16.87;;;7.07;;
29030;SDS011;16122;50.236;11.734;2023-07-09T14:28:30;10.77;;;5.60;;
29030;SDS011;16122;50.236;11.734;2023-07-09T14:30:56;7.70;;;5.77;;
29030;SDS011;16122;50.236;11.734;2023-07-09T14:33:23;11.33;;;6.67;;
29030;SDS011;16122;50.236;11.734;2023-07-09T14:35:49;9.50;;;5.93;;
29030;SDS011;16122;50.236;11.734;2023-07-09T14:38:19;14.10;;;5.87;;
29030;SDS011;16122;50.236;11.734;2023-07-09T14:40:51;8.50;;;6.23;;
29030;SDS011;16122;50.236;11.734;2023-07-09T14:43:21;8.63;;;5.40;;
29030;SDS011;16122;50.236;11.734;2023-07-09T14:45:47;12.10;;;5.73;;
29030;SDS011;16122;50.236;11.734;2023-07-09T14:48:15;12.50;;;6.70;;
29030;SDS011;16122;50.236;11.734;2023-07-09T14:50:44;11.20;;;6.97;;
29030;SDS011;16122;50.236;11.734;2023-07-09T14:53:13;16.40;;;6.30;;
29030;SDS011;16122;50.236;11.734;2023-07-09T14:55:42;11.47;;;6.33;;
29030;SDS011;16122;50.236;11.734;2023-07-09T14:58:14;10.70;;;6.43;;
29030;SDS011;16122;50.236;11.734;2023-07-09T15:00:41;9.87;;;6.37;;
29030;SDS011;16122;50.236;11.734;2023-07-09T15:03:09;11.20;;;7.10;;
29030;SDS011;16122;50.236;11.734;2023-07-09T15:05:36;9.87;;;6.80;;
29030;SDS011;16122;50.236;11.734;2023-07-09T15:08:16;20.30;;;7.30;;
29030;SDS011;16122;50.236;11.734;2023-07-09T15:10:44;11.53;;;6.30;;
29030;SDS011;16122;50.236;11.734;2023-07-09T15:13:30;14.30;;;6.23;;
29030;SDS011;16122;50.236;11.734;2023-07-09T15:15:59;9.50;;;6.47;;
29030;SDS011;16122;50.236;11.734;2023-07-09T15:18:25;11.57;;;6.47;;
29030;SDS011;16122;50.236;11.734;2023-07-09T15:20:55;14.43;;;6.63;;
29030;SDS011;16122;50.236;11.734;2023-07-09T15:23:23;10.57;;;6.40;;
29030;SDS011;16122;50.236;11.734;2023-07-09T15:25:50;9.30;;;6.63;;
29030;SDS011;16122;50.236;11.734;2023-07-09T15:28:16;14.03;;;7.17;;